Accueil
METAR-TAF:

METAR-TAF

Aéroports :

Shimla, Inde

latitude: 31-04-54N, longitude: 77-04-05E, altitude: 1546 m

METAR: absent

Heure: 19:50 (14:20 UTC)

Prévision

Le bulletin a été fait il y a 15 heures et 20 minutes, à 23:00 UTC
Prévision valable du 29 à 00 UTC au 29 à 09 UTC
Vent 2 kt de direction variable
Visibilité: 2000 m
Nuages épars à une hauteur de 2500 ft
Nuages fragmentés à une hauteur de 6000 ft
brume
Evoluant progressivement
du 29 à 03 UTC au 29 à 05 UTC
Vent 5 kt de ouest/sud-ouest
Visibilité: 3500 m
brume sèche, pluie faible
Temporairement
du 29 à 06 UTC au 29 à 09 UTC
Visibilité: 2000 m
Nuages épars à une hauteur de 2000 ft
Quelques nuages à une hauteur de 3000 ft, Cumulonimbus.
Ciel couvert à une hauteur de 6000 ft
orage, pluie

TAF: VISM 282300Z 2900/2909 VRB02KT 2000 BR SCT025 BKN060 BECMG 2903/2905 25005KT 3500 HZ -RA TEMPO 2906/2909 2000 TSRA SCT020 FEW030CB OVC060

Observations et prévisions météorologiques de plus de 4000 aéroports (messages METAR et TAF).

Les stations disponibles sont représentées par des disques jaunes et rouges sur la carte.

Passer la souris dessus pour voir le nom de la station.

Cliquer dessus pour voir les observations et prévisions météorologiques.

Pour changer de carte: cliquez sur les boutons verts avec une croix noire pour zoomer, sur le bouton vert avec un tiret pour effectuer un zoom arrière, ou sur les flèches vertes pour les cartes adjacentes.


METAR-TAF: